createdAt,value
2022-12-11T00:00:49.773Z,0.31
2022-12-11T00:05:55.851Z,0.14
2022-12-11T00:11:03.556Z,0.00
2022-12-11T00:16:09.059Z,0.08
2022-12-11T00:21:17.235Z,-0.26
2022-12-11T00:26:25.151Z,-0.23
2022-12-11T00:31:30.135Z,0.29
2022-12-11T00:36:35.245Z,-0.24
2022-12-11T00:41:42.700Z,-0.15
2022-12-11T00:46:48.965Z,-0.04
2022-12-11T00:51:53.948Z,-0.07
2022-12-11T00:57:01.431Z,0.12
2022-12-11T01:02:06.357Z,-0.17
2022-12-11T01:07:11.259Z,0.07
2022-12-11T01:12:18.776Z,-0.29
2022-12-11T01:17:23.735Z,-0.22
2022-12-11T01:22:28.829Z,-0.36
2022-12-11T01:27:36.617Z,-0.19
2022-12-11T01:32:41.527Z,-0.05
2022-12-11T01:37:46.541Z,-0.11
2022-12-11T01:42:54.103Z,0.07
2022-12-11T01:48:03.739Z,0.01
2022-12-11T01:53:11.688Z,-0.22
2022-12-11T01:58:20.578Z,-0.29
2022-12-11T02:03:25.987Z,-0.21
2022-12-11T02:08:34.184Z,-0.32
2022-12-11T02:13:47.831Z,-0.66
2022-12-11T02:18:59.338Z,-0.40
2022-12-11T02:24:18.618Z,-0.52
2022-12-11T02:29:33.430Z,-0.28
2022-12-11T02:34:45.313Z,-0.43
2022-12-11T02:39:53.680Z,-0.44
2022-12-11T02:45:03.527Z,-0.53
2022-12-11T02:50:14.310Z,-0.72
2022-12-11T02:55:20.354Z,-0.63
2022-12-11T03:00:27.846Z,-0.62
2022-12-11T03:05:33.531Z,-0.72
2022-12-11T03:10:38.597Z,-0.58
2022-12-11T03:15:58.296Z,-0.55
2022-12-11T03:21:09.495Z,-0.47
2022-12-11T03:26:16.481Z,-0.60
2022-12-11T03:31:29.924Z,-0.73
2022-12-11T03:36:37.814Z,-0.68
2022-12-11T03:41:44.795Z,-0.57
2022-12-11T03:46:55.291Z,-0.78
2022-12-11T03:52:03.573Z,-0.86
2022-12-11T03:57:11.532Z,-0.60
2022-12-11T04:02:19.122Z,-1.02
2022-12-11T04:07:24.015Z,-0.54
2022-12-11T04:12:29.012Z,-0.84
2022-12-11T04:17:51.352Z,-0.84
2022-12-11T04:23:08.683Z,-0.37
2022-12-11T04:28:13.650Z,-0.46
2022-12-11T04:33:21.185Z,-0.51
2022-12-11T04:38:26.319Z,-0.64
2022-12-11T04:43:31.485Z,-0.66
2022-12-11T04:48:40.276Z,-0.69
2022-12-11T04:53:45.892Z,-0.45
2022-12-11T04:58:51.471Z,-0.83
2022-12-11T05:03:59.015Z,-1.05
2022-12-11T05:09:06.481Z,-0.79
2022-12-11T05:14:11.763Z,-0.75
2022-12-11T05:19:21.237Z,-0.85
2022-12-11T05:24:26.130Z,-1.04
2022-12-11T05:29:31.237Z,-1.34
2022-12-11T05:34:38.777Z,-1.24
2022-12-11T05:39:43.742Z,-0.97
2022-12-11T05:44:49.757Z,-0.99
2022-12-11T05:49:57.222Z,-1.42
2022-12-11T05:55:02.425Z,-0.81
2022-12-11T06:00:08.012Z,-1.25
2022-12-11T06:05:15.600Z,-1.58
2022-12-11T06:10:20.692Z,-1.57
2022-12-11T06:15:26.189Z,-1.14
2022-12-11T06:20:34.104Z,-1.50
2022-12-11T06:25:41.425Z,-1.43
2022-12-11T06:30:46.582Z,-1.55
2022-12-11T06:35:56.858Z,-1.86
2022-12-11T06:41:07.793Z,-1.95
2022-12-11T06:46:16.081Z,-1.74
2022-12-11T06:51:25.853Z,-2.09
2022-12-11T06:56:30.795Z,-1.79
2022-12-11T07:01:39.505Z,-1.87
2022-12-11T07:06:49.526Z,-2.03
2022-12-11T07:11:58.464Z,-1.89
2022-12-11T07:17:03.827Z,-1.89
2022-12-11T07:22:11.477Z,-1.77
2022-12-11T07:27:17.709Z,-2.01
2022-12-11T07:32:23.238Z,-1.99
2022-12-11T07:37:31.257Z,-2.43
2022-12-11T07:42:39.255Z,-1.84
2022-12-11T07:47:48.280Z,-2.04
2022-12-11T07:52:55.921Z,-2.06
2022-12-11T07:58:01.377Z,-1.98
2022-12-11T08:03:06.853Z,-2.30
2022-12-11T08:08:14.677Z,-1.87
2022-12-11T08:13:19.810Z,-2.08
2022-12-11T08:18:24.685Z,-2.25
2022-12-11T08:23:32.199Z,-2.41
2022-12-11T08:28:37.434Z,-2.02
2022-12-11T08:33:43.072Z,-1.85
2022-12-11T08:38:50.785Z,-2.26
2022-12-11T08:43:57.796Z,-1.84
2022-12-11T08:49:05.441Z,-1.66
2022-12-11T08:54:13.721Z,-1.45
2022-12-11T08:59:21.377Z,-1.88
2022-12-11T09:04:26.719Z,-2.00
2022-12-11T09:09:34.579Z,-2.37
2022-12-11T09:14:39.739Z,-2.34
2022-12-11T09:19:47.240Z,-2.55
2022-12-11T09:24:55.259Z,-2.20
2022-12-11T09:30:00.139Z,-2.52
2022-12-11T09:35:05.946Z,-2.23
2022-12-11T09:40:18.853Z,-2.10
2022-12-11T09:45:24.424Z,-2.15
2022-12-11T09:50:33.399Z,-2.32
2022-12-11T09:55:52.773Z,-1.58
2022-12-11T10:01:05.616Z,-1.95
2022-12-11T10:06:21.250Z,-1.56
2022-12-11T10:11:56.096Z,-1.64
2022-12-11T10:17:05.629Z,-1.22
2022-12-11T10:22:21.525Z,-1.75
2022-12-11T10:27:34.464Z,-1.67
2022-12-11T10:32:46.289Z,-1.64
2022-12-11T10:37:51.532Z,-1.86
2022-12-11T10:43:01.340Z,-1.62
2022-12-11T10:48:14.206Z,-1.70
2022-12-11T10:53:24.473Z,-2.03
2022-12-11T10:58:36.867Z,-1.50
2022-12-11T11:03:57.719Z,-1.48
2022-12-11T11:09:04.919Z,-1.67
2022-12-11T11:14:19.738Z,-1.81
2022-12-11T11:19:28.349Z,-1.67
2022-12-11T11:24:40.407Z,-1.62
2022-12-11T11:29:57.479Z,-1.83
2022-12-11T11:35:21.840Z,-1.69
2022-12-11T11:40:33.029Z,-1.70
2022-12-11T11:45:48.815Z,-1.33
2022-12-11T11:50:59.651Z,-1.49
2022-12-11T11:56:16.108Z,-0.95
2022-12-11T12:01:24.315Z,-0.65
2022-12-11T12:06:39.071Z,-0.82
2022-12-11T12:11:52.468Z,-1.06
2022-12-11T12:17:15.464Z,-1.16
2022-12-11T12:22:36.232Z,-0.96
2022-12-11T12:27:52.990Z,-1.20
2022-12-11T12:33:16.974Z,-1.39
2022-12-11T12:38:26.887Z,-1.25
2022-12-11T12:43:51.262Z,-1.21
2022-12-11T12:49:02.447Z,-1.22
2022-12-11T12:54:12.572Z,-0.66
2022-12-11T12:59:25.572Z,-1.16
2022-12-11T13:04:56.068Z,-0.67
2022-12-11T13:10:06.732Z,-0.94
2022-12-11T13:15:33.102Z,-1.16
2022-12-11T13:20:55.813Z,-1.15
2022-12-11T13:26:05.147Z,-1.23
2022-12-11T13:31:31.006Z,-1.54
2022-12-11T13:36:41.085Z,-1.82
2022-12-11T13:41:56.278Z,-1.71
2022-12-11T13:47:06.093Z,-1.58
2022-12-11T13:52:22.958Z,-1.74
2022-12-11T13:57:29.760Z,-1.95
2022-12-11T14:02:38.386Z,-2.01
2022-12-11T14:07:52.023Z,-1.68
2022-12-11T14:13:05.213Z,-1.83
2022-12-11T14:18:21.138Z,-2.27
2022-12-11T14:23:33.555Z,-2.11
2022-12-11T14:28:41.145Z,-2.17
2022-12-11T14:33:49.642Z,-2.13
2022-12-11T14:39:00.833Z,-2.08
2022-12-11T14:44:13.372Z,-2.19
2022-12-11T14:49:27.800Z,-1.90
2022-12-11T14:54:38.697Z,-1.56
2022-12-11T14:59:48.751Z,-1.62
2022-12-11T15:05:06.911Z,-2.19
2022-12-11T15:10:41.224Z,-1.72
2022-12-11T15:15:49.133Z,-2.15
2022-12-11T15:20:59.548Z,-2.20
2022-12-11T15:26:07.624Z,-2.08
2022-12-11T15:31:30.775Z,-2.32
2022-12-11T15:36:38.503Z,-2.38
2022-12-11T15:41:46.636Z,-2.42
2022-12-11T15:46:51.580Z,-2.25
2022-12-11T15:51:56.477Z,-1.93
2022-12-11T15:57:09.446Z,-1.99
2022-12-11T16:02:19.226Z,-2.03
2022-12-11T16:07:27.660Z,-2.27
2022-12-11T16:12:35.892Z,-2.03
2022-12-11T16:17:41.535Z,-2.11
2022-12-11T16:22:46.521Z,-2.19
2022-12-11T16:27:54.010Z,-2.03
2022-12-11T16:32:59.263Z,-1.82
2022-12-11T16:38:04.230Z,-1.59
2022-12-11T16:43:12.551Z,-2.20
2022-12-11T16:48:17.481Z,-2.08
2022-12-11T16:53:22.510Z,-1.93
2022-12-11T16:58:30.094Z,-2.25
2022-12-11T17:03:35.355Z,-1.89
2022-12-11T17:08:43.659Z,-1.95
2022-12-11T17:13:56.130Z,-2.06
2022-12-11T17:19:03.382Z,-2.13
2022-12-11T17:24:11.154Z,-2.00
2022-12-11T17:29:28.622Z,-2.15
2022-12-11T17:34:38.349Z,-2.01
2022-12-11T17:39:43.780Z,-2.05
2022-12-11T17:44:53.149Z,-2.31
2022-12-11T17:50:00.110Z,-1.68
2022-12-11T17:55:05.063Z,-1.89
2022-12-11T18:00:14.280Z,-2.08
2022-12-11T18:05:19.334Z,-2.11
2022-12-11T18:10:24.625Z,-2.25
2022-12-11T18:15:32.343Z,-2.07
2022-12-11T18:20:39.949Z,-2.26
2022-12-11T18:25:45.097Z,-2.42
2022-12-11T18:30:56.573Z,-2.45
2022-12-11T18:36:02.303Z,-2.23
2022-12-11T18:41:09.750Z,-2.54
2022-12-11T18:46:29.811Z,-2.25
2022-12-11T18:51:38.047Z,-2.36
2022-12-11T18:56:43.694Z,-2.41
2022-12-11T19:01:51.960Z,-2.23
2022-12-11T19:06:57.669Z,-2.31
2022-12-11T19:12:04.976Z,-2.71
2022-12-11T19:17:13.695Z,-2.76
2022-12-11T19:22:21.475Z,-2.22
2022-12-11T19:27:27.387Z,-2.46
2022-12-11T19:32:44.316Z,-2.69
2022-12-11T19:37:50.589Z,-2.45
2022-12-11T19:42:59.412Z,-2.57
2022-12-11T19:48:08.393Z,-2.39
2022-12-11T19:53:14.404Z,-2.71
2022-12-11T19:58:20.342Z,-2.66
2022-12-11T20:03:31.615Z,-2.15
2022-12-11T20:08:46.257Z,-2.17
2022-12-11T20:13:52.499Z,-2.55
2022-12-11T20:19:01.879Z,-2.55
2022-12-11T20:24:10.199Z,-2.73
2022-12-11T20:29:15.908Z,-2.46
2022-12-11T20:34:24.223Z,-2.74
2022-12-11T20:39:29.884Z,-2.72
2022-12-11T20:44:49.460Z,-2.64
2022-12-11T20:50:04.014Z,-2.50
2022-12-11T20:55:13.197Z,-2.76
2022-12-11T21:00:20.763Z,-2.80
2022-12-11T21:05:32.118Z,-2.79
2022-12-11T21:10:40.086Z,-2.55
2022-12-11T21:15:46.425Z,-2.81
2022-12-11T21:21:01.531Z,-2.64
2022-12-11T21:26:08.243Z,-2.74
2022-12-11T21:31:16.476Z,-2.72
2022-12-11T21:36:27.786Z,-2.72
2022-12-11T21:41:32.980Z,-2.92
2022-12-11T21:46:40.714Z,-2.39
2022-12-11T21:51:48.427Z,-2.81
2022-12-11T21:56:54.737Z,-2.73
2022-12-11T22:02:00.429Z,-2.54
2022-12-11T22:07:08.056Z,-2.78
2022-12-11T22:12:20.202Z,-2.79
2022-12-11T22:17:27.580Z,-2.88
2022-12-11T22:22:36.330Z,-2.86
2022-12-11T22:27:45.123Z,-2.74
2022-12-11T22:32:50.074Z,-2.79
2022-12-11T22:37:57.883Z,-2.80
2022-12-11T22:43:02.899Z,-2.76
2022-12-11T22:48:08.713Z,-2.54
2022-12-11T22:53:16.257Z,-2.49
2022-12-11T22:58:22.071Z,-2.66
2022-12-11T23:03:27.156Z,-2.75
2022-12-11T23:08:35.016Z,-2.84
2022-12-11T23:13:40.231Z,-2.64
2022-12-11T23:18:46.993Z,-2.38
2022-12-11T23:23:55.323Z,-2.50
2022-12-11T23:29:02.065Z,-2.73
2022-12-11T23:34:07.670Z,-2.71
2022-12-11T23:39:15.591Z,-2.79
2022-12-11T23:44:20.627Z,-2.50
2022-12-11T23:49:25.513Z,-2.37
2022-12-11T23:54:33.371Z,-2.29
2022-12-11T23:59:39.521Z,-2.67
